Rochdale, Mississippi
Current Conditions -  °F | °C
As of 7:55 AM on Wednesday 28 Jan 2015 (Local Time) from KRNV Reporting Station
Clear Clear  
Wind Chill: 36°   Ceiling: Unl
Heat Index: 40°   Visibility: 10mi
Dew Point: 36°   Wind: 6mph
Humidity: 83%   Direction: 120°ESE
Pressure: 30.28"   Gusts: NA
Location:  34.0609°N, 90.7985°W
Report Text: KRNV 281355Z AUTO 12005KT 10SM CLR 05/02 A3028 RMK AO2 T00470020
Loading
Personal Weather Stations






























Interactive Weather Map New forecast layout! Learn more

10-Day Weather Forecast

Advertisements
Track Severe Weather on mobile